Time;durP1;ratioP1;P1;durP2;ratioP2;P2;SDS_P1;SDS_P2;PMS_P1;PMS_P2;Temp;Humidity;BMP_temperature;BMP_pressure;BME280_temperature;BME280_humidity;BME280_pressure;Samples;Min_cycle;Max_cycle;Signal;HPM_P1;HPM_P2
2021/11/06 00:01:25;;;;;;;16.02;9.57;;;5.60;59.60;;;;;;4893114;29;20111;-64
2021/11/06 00:03:51;;;;;;;18.25;10.52;;;5.60;59.70;;;;;;4892636;29;20040;-64
2021/11/06 00:06:17;;;;;;;14.85;9.48;;;5.60;59.90;;;;;;4895366;29;20103;-64
2021/11/06 00:08:43;;;;;;;15.55;9.73;;;5.50;59.90;;;;;;4892344;29;20029;-64
2021/11/06 00:11:12;;;;;;;17.40;9.95;;;5.50;59.90;;;;;;4893296;29;20037;-64
2021/11/06 00:13:41;;;;;;;18.63;9.70;;;5.50;60.00;;;;;;4894028;29;20552;-64
2021/11/06 00:16:15;;;;;;;14.60;9.15;;;5.50;60.20;;;;;;4892812;29;20021;-64
2021/11/06 00:18:45;;;;;;;14.70;8.65;;;5.40;60.50;;;;;;4892845;29;20064;-64
2021/11/06 00:21:19;;;;;;;15.90;8.73;;;5.40;60.70;;;;;;4895498;29;20032;-64
2021/11/06 00:23:51;;;;;;;15.52;9.00;;;5.40;60.80;;;;;;4893732;29;20021;-64
2021/11/06 00:26:20;;;;;;;15.65;9.88;;;5.40;61.00;;;;;;4892763;29;20052;-64
2021/11/06 00:28:49;;;;;;;14.45;9.55;;;5.40;61.30;;;;;;4888244;29;20088;-64
2021/11/06 00:31:15;;;;;;;14.32;9.48;;;5.30;61.40;;;;;;4884801;29;20031;-64
2021/11/06 00:33:44;;;;;;;15.30;8.15;;;5.30;61.50;;;;;;4893025;29;20029;-64
2021/11/06 00:36:13;;;;;;;12.98;7.43;;;5.30;61.30;;;;;;4895154;29;20028;-64
2021/11/06 00:38:43;;;;;;;13.45;7.10;;;5.20;61.20;;;;;;4893527;29;20553;-64
2021/11/06 00:41:09;;;;;;;10.52;6.38;;;5.20;61.00;;;;;;4893263;29;20865;-64
2021/11/06 00:43:35;;;;;;;12.02;7.18;;;5.20;60.90;;;;;;4893673;29;20068;-64
2021/11/06 00:46:01;;;;;;;13.05;8.65;;;5.10;60.80;;;;;;4894097;29;20108;-64
2021/11/06 00:48:27;;;;;;;13.82;8.90;;;5.10;61.00;;;;;;4894240;29;20131;-64
2021/11/06 00:50:53;;;;;;;12.88;8.73;;;5.10;61.10;;;;;;4882455;29;20527;-64
2021/11/06 00:53:19;;;;;;;14.32;8.02;;;5.00;61.30;;;;;;4891033;29;20248;-64
2021/11/06 00:55:45;;;;;;;16.95;9.88;;;5.00;61.50;;;;;;4892705;29;20527;-64
2021/11/06 00:58:10;;;;;;;13.82;9.00;;;5.00;61.50;;;;;;4891587;29;20069;-64
2021/11/06 01:00:37;;;;;;;14.73;9.00;;;5.00;61.60;;;;;;4891774;29;20436;-64
2021/11/06 01:03:03;;;;;;;13.32;8.80;;;4.90;61.70;;;;;;4895709;29;20460;-64
2021/11/06 01:05:28;;;;;;;12.70;7.97;;;4.90;61.70;;;;;;4907825;29;20041;-64
2021/11/06 01:07:54;;;;;;;15.25;9.23;;;4.90;61.60;;;;;;4893073;29;20084;-64
2021/11/06 01:10:20;;;;;;;14.70;8.65;;;4.80;61.40;;;;;;4891949;29;20029;-64
2021/11/06 01:12:46;;;;;;;15.02;9.30;;;4.80;61.50;;;;;;4893573;29;20515;-64
2021/11/06 01:15:14;;;;;;;15.35;9.70;;;4.70;61.40;;;;;;4894432;29;20119;-64
2021/11/06 01:17:41;;;;;;;14.35;9.00;;;4.70;61.60;;;;;;4889938;29;20057;-64
2021/11/06 01:20:08;;;;;;;15.13;8.52;;;4.70;62.00;;;;;;4891457;29;20036;-64
2021/11/06 01:22:35;;;;;;;15.40;8.70;;;4.70;62.00;;;;;;4892713;29;20039;-64
2021/11/06 01:25:01;;;;;;;14.20;8.65;;;4.70;62.00;;;;;;4892815;29;20036;-64
2021/11/06 01:27:27;;;;;;;11.98;7.82;;;4.60;61.90;;;;;;4892898;29;20037;-64
2021/11/06 01:29:53;;;;;;;13.80;8.20;;;4.60;62.10;;;;;;4889555;29;20029;-64
2021/11/06 01:32:19;;;;;;;13.00;8.60;;;4.60;62.20;;;;;;4889838;29;20033;-64
2021/11/06 01:34:44;;;;;;;15.00;7.90;;;4.60;62.40;;;;;;4887239;29;20040;-64
2021/11/06 01:37:10;;;;;;;12.50;8.43;;;4.60;62.80;;;;;;4885282;29;20033;-64
2021/11/06 01:39:36;;;;;;;18.30;9.23;;;4.60;62.90;;;;;;4891501;29;20404;-64
2021/11/06 01:42:02;;;;;;;13.50;9.15;;;4.60;63.20;;;;;;4894929;29;20036;-64
2021/11/06 01:44:30;;;;;;;16.75;9.50;;;4.60;63.70;;;;;;4895157;29;20099;-64
2021/11/06 01:46:56;;;;;;;12.77;8.05;;;4.60;63.60;;;;;;4895563;29;20500;-64
2021/11/06 01:49:21;;;;;;;12.77;7.57;;;4.60;63.40;;;;;;4894980;29;20040;-64
2021/11/06 01:51:52;;;;;;;13.93;7.60;;;4.60;63.30;;;;;;4897385;29;20769;-64
2021/11/06 01:54:22;;;;;;;10.07;7.07;;;4.60;63.30;;;;;;4897644;29;20187;-64
2021/11/06 01:56:49;;;;;;;13.45;8.07;;;4.50;63.00;;;;;;4897953;29;20040;-64
2021/11/06 01:59:14;;;;;;;13.35;7.60;;;4.50;62.90;;;;;;4896108;29;20020;-64
2021/11/06 02:01:40;;;;;;;13.15;8.23;;;4.40;63.00;;;;;;4894908;29;20036;-64
2021/11/06 02:04:06;;;;;;;14.15;8.95;;;4.40;63.10;;;;;;4897612;29;20157;-63
2021/11/06 02:06:32;;;;;;;14.40;8.25;;;4.40;63.30;;;;;;4897007;29;20033;-64
2021/11/06 02:08:58;;;;;;;13.63;7.40;;;4.40;63.40;;;;;;4898354;29;20037;-64
2021/11/06 02:11:24;;;;;;;13.55;8.73;;;4.40;63.40;;;;;;4895765;29;20112;-63
2021/11/06 02:13:50;;;;;;;12.38;6.90;;;4.30;63.10;;;;;;4892519;29;20057;-64
2021/11/06 02:16:16;;;;;;;12.38;6.95;;;4.30;63.20;;;;;;4887253;29;20036;-64
2021/11/06 02:18:41;;;;;;;11.52;6.65;;;4.30;63.00;;;;;;4894795;29;20062;-64
2021/11/06 02:21:09;;;;;;;13.48;8.35;;;4.30;63.00;;;;;;4898209;29;20388;-64
2021/11/06 02:23:37;;;;;;;13.50;8.32;;;4.20;62.80;;;;;;4895800;29;20036;-64
2021/11/06 02:26:06;;;;;;;14.90;8.65;;;4.20;62.90;;;;;;4896439;29;20020;-64
2021/11/06 02:28:32;;;;;;;12.32;8.32;;;4.10;63.00;;;;;;4896797;29;20024;-64
2021/11/06 02:30:58;;;;;;;14.23;8.60;;;4.10;63.30;;;;;;4894137;29;20104;-64
2021/11/06 02:33:24;;;;;;;14.77;8.77;;;4.10;63.80;;;;;;4896327;29;20127;-64
2021/11/06 02:35:50;;;;;;;13.15;8.35;;;4.00;63.60;;;;;;4896176;29;20107;-64
2021/11/06 02:38:16;;;;;;;17.27;9.27;;;4.00;63.70;;;;;;4895315;29;20044;-64
2021/11/06 02:40:42;;;;;;;16.27;8.60;;;4.00;64.00;;;;;;4896007;29;20118;-64
2021/11/06 02:43:09;;;;;;;13.00;8.38;;;4.00;64.00;;;;;;4894857;29;20546;-64
2021/11/06 02:45:36;;;;;;;13.75;8.38;;;4.00;64.00;;;;;;4894281;29;20032;-64
2021/11/06 02:48:04;;;;;;;16.42;8.27;;;4.00;63.90;;;;;;4898237;29;20020;-64
2021/11/06 02:50:30;;;;;;;16.38;9.82;;;3.90;64.00;;;;;;4894755;29;20500;-64
2021/11/06 02:52:56;;;;;;;17.83;8.82;;;3.90;64.00;;;;;;4896600;29;20032;-64
2021/11/06 02:55:22;;;;;;;16.90;8.45;;;3.90;64.30;;;;;;4895282;29;20044;-64
2021/11/06 02:57:48;;;;;;;12.63;6.97;;;3.90;64.30;;;;;;4895893;29;20064;-64
2021/11/06 03:00:15;;;;;;;14.98;7.82;;;3.90;64.50;;;;;;4896733;29;20044;-63
2021/11/06 03:02:41;;;;;;;14.35;8.00;;;3.90;64.40;;;;;;4911709;29;20408;-64
2021/11/06 03:05:09;;;;;;;18.45;8.35;;;3.80;64.30;;;;;;4895562;29;20045;-64
2021/11/06 03:07:35;;;;;;;15.15;8.38;;;3.80;64.20;;;;;;4891022;29;20033;-64
2021/11/06 03:10:03;;;;;;;16.95;8.80;;;3.80;64.00;;;;;;4891043;29;20511;-64
2021/11/06 03:12:30;;;;;;;18.67;9.80;;;3.80;64.00;;;;;;4894916;29;20029;-64
2021/11/06 03:14:55;;;;;;;17.98;9.05;;;3.70;64.00;;;;;;4897095;29;20036;-64
2021/11/06 03:17:21;;;;;;;16.00;8.57;;;3.70;64.20;;;;;;4894987;29;20032;-64
2021/11/06 03:19:47;;;;;;;16.45;8.38;;;3.70;64.30;;;;;;4889522;29;20021;-64
2021/11/06 03:22:13;;;;;;;15.73;8.32;;;3.70;64.40;;;;;;4895368;29;20024;-63
2021/11/06 03:24:39;;;;;;;19.83;9.20;;;3.60;64.30;;;;;;4894552;29;20044;-63
2021/11/06 03:27:05;;;;;;;17.38;8.80;;;3.60;64.20;;;;;;4896804;29;20025;-64
2021/11/06 03:29:32;;;;;;;17.85;8.52;;;3.60;64.40;;;;;;4894207;29;20036;-64
2021/11/06 03:31:58;;;;;;;17.10;8.93;;;3.60;64.30;;;;;;4894584;29;20052;-64
2021/11/06 03:34:25;;;;;;;18.38;9.32;;;3.60;64.30;;;;;;4894729;29;20035;-63
2021/11/06 03:36:51;;;;;;;19.02;8.70;;;3.60;64.30;;;;;;4894599;29;20036;-64
2021/11/06 03:39:17;;;;;;;19.10;9.38;;;3.60;64.50;;;;;;4892460;29;20028;-64
2021/11/06 03:41:43;;;;;;;21.55;10.38;;;3.60;64.60;;;;;;4892473;29;20396;-64
2021/11/06 03:44:10;;;;;;;20.50;10.48;;;3.60;64.70;;;;;;4894523;29;20064;-64
2021/11/06 03:46:36;;;;;;;21.98;9.73;;;3.60;64.90;;;;;;4893674;29;20028;-64
2021/11/06 03:49:03;;;;;;;22.13;9.75;;;3.50;65.90;;;;;;4892975;29;20080;-64
2021/11/06 03:51:29;;;;;;;17.98;9.23;;;3.60;65.20;;;;;;4895037;29;20086;-64
2021/11/06 03:53:55;;;;;;;19.70;10.45;;;3.60;65.10;;;;;;4897570;29;20473;-63
2021/11/06 03:56:21;;;;;;;19.17;9.13;;;3.60;65.00;;;;;;4908212;29;20123;-64
2021/11/06 03:58:48;;;;;;;19.83;9.52;;;3.50;65.10;;;;;;4893634;29;20039;-64
2021/11/06 04:01:14;;;;;;;19.60;9.98;;;3.50;65.10;;;;;;4894134;29;20111;-64
2021/11/06 04:03:40;;;;;;;20.80;10.40;;;3.50;65.20;;;;;;4893447;29;20057;-64
2021/11/06 04:06:05;;;;;;;16.63;9.70;;;3.50;65.20;;;;;;4886532;29;20076;-64
2021/11/06 04:08:31;;;;;;;16.63;9.30;;;3.50;65.20;;;;;;4894684;29;20497;-63
2021/11/06 04:10:57;;;;;;;20.42;10.63;;;3.50;65.10;;;;;;4893200;29;20083;-64
2021/11/06 04:13:23;;;;;;;20.90;10.25;;;3.50;65.10;;;;;;4891525;29;20040;-64
2021/11/06 04:15:49;;;;;;;21.83;10.38;;;3.50;65.20;;;;;;4893268;29;20037;-64
2021/11/06 04:18:14;;;;;;;15.38;9.80;;;3.50;65.20;;;;;;4895139;29;20032;-64
2021/11/06 04:20:40;;;;;;;19.50;10.00;;;3.40;65.20;;;;;;4894161;29;20037;-63
2021/11/06 04:23:06;;;;;;;19.10;10.38;;;3.50;65.30;;;;;;4891877;29;20127;-64
2021/11/06 04:25:32;;;;;;;18.50;10.07;;;3.50;65.20;;;;;;4892933;29;20041;-63
2021/11/06 04:27:58;;;;;;;16.92;10.27;;;3.50;65.30;;;;;;4893868;29;20033;-64
2021/11/06 04:30:24;;;;;;;16.73;10.00;;;3.50;65.20;;;;;;4893877;29;20441;-64
2021/11/06 04:32:50;;;;;;;18.02;10.40;;;3.50;65.40;;;;;;4895458;29;20090;-64
2021/11/06 04:35:15;;;;;;;18.15;10.30;;;3.50;65.50;;;;;;4893911;29;20028;-63
2021/11/06 04:37:41;;;;;;;15.77;9.82;;;3.50;65.70;;;;;;4892675;29;20056;-64
2021/11/06 04:40:09;;;;;;;17.65;10.00;;;3.60;65.70;;;;;;4894096;29;20055;-64
2021/11/06 04:42:35;;;;;;;19.13;11.05;;;3.60;65.60;;;;;;4891288;29;20029;-63
2021/11/06 04:45:01;;;;;;;18.88;10.75;;;3.60;65.70;;;;;;4891913;29;20044;-64
2021/11/06 04:47:27;;;;;;;16.00;10.27;;;3.50;65.80;;;;;;4893773;29;20041;-64
2021/11/06 04:49:52;;;;;;;17.00;9.63;;;3.50;65.80;;;;;;4893969;29;20574;-63
2021/11/06 04:52:18;;;;;;;18.40;10.48;;;3.50;65.90;;;;;;4894620;29;20037;-63
2021/11/06 04:54:44;;;;;;;15.85;9.43;;;3.50;65.90;;;;;;4892634;29;20465;-64
2021/11/06 04:57:10;;;;;;;17.40;9.77;;;3.50;65.80;;;;;;4894706;29;20032;-63
2021/11/06 04:59:35;;;;;;;21.17;10.70;;;3.50;65.90;;;;;;4893680;29;20100;-63
2021/11/06 05:02:03;;;;;;;18.27;10.93;;;3.40;65.90;;;;;;4891976;29;20028;-63
2021/11/06 05:04:29;;;;;;;21.63;10.50;;;3.40;66.20;;;;;;4892386;29;20048;-63
2021/11/06 05:06:54;;;;;;;15.23;10.00;;;3.40;66.40;;;;;;4893790;29;20035;-63
2021/11/06 05:09:20;;;;;;;14.05;9.55;;;3.30;66.50;;;;;;4894143;29;20036;-63
2021/11/06 05:11:47;;;;;;;16.25;10.23;;;3.30;66.60;;;;;;4894237;29;20028;-63
2021/11/06 05:14:13;;;;;;;15.23;9.60;;;3.20;66.50;;;;;;4893054;29;20036;-64
2021/11/06 05:16:39;;;;;;;17.48;10.05;;;3.30;66.60;;;;;;4893594;29;20032;-63
2021/11/06 05:19:05;;;;;;;15.98;9.65;;;3.30;66.60;;;;;;4889074;29;20404;-63
2021/11/06 05:21:36;;;;;;;16.85;9.57;;;3.30;66.80;;;;;;4892126;29;20029;-63
2021/11/06 05:24:05;;;;;;;13.85;9.20;;;3.30;67.80;;;;;;4885018;29;20045;-63
2021/11/06 05:26:32;;;;;;;17.35;9.35;;;3.20;66.70;;;;;;4892627;29;20195;-64
2021/11/06 05:28:58;;;;;;;18.52;10.20;;;3.20;66.70;;;;;;4888264;29;20032;-63
2021/11/06 05:31:24;;;;;;;16.27;10.23;;;3.20;66.60;;;;;;4892611;29;20377;-64
2021/11/06 05:33:49;;;;;;;16.52;9.93;;;3.20;66.70;;;;;;4888617;29;20086;-63
2021/11/06 05:36:15;;;;;;;16.63;10.63;;;3.20;66.70;;;;;;4892170;29;20476;-63
2021/11/06 05:38:41;;;;;;;19.20;9.20;;;3.20;66.90;;;;;;4894639;29;20040;-63
2021/11/06 05:41:06;;;;;;;18.05;10.27;;;3.20;67.00;;;;;;4893420;29;20029;-63
2021/11/06 05:43:32;;;;;;;18.42;10.20;;;3.20;67.10;;;;;;4890154;29;20425;-63
2021/11/06 05:45:58;;;;;;;16.58;9.05;;;3.20;67.30;;;;;;4891321;29;20047;-63
2021/11/06 05:48:24;;;;;;;15.38;9.48;;;3.20;67.10;;;;;;4893326;29;20035;-64
2021/11/06 05:50:50;;;;;;;15.75;9.65;;;3.20;67.00;;;;;;4893533;29;20412;-63
2021/11/06 05:53:16;;;;;;;18.60;10.90;;;3.20;66.90;;;;;;4893173;29;20028;-64
2021/11/06 05:55:41;;;;;;;18.50;11.30;;;3.20;66.90;;;;;;4893432;29;20047;-63
2021/11/06 05:58:08;;;;;;;16.48;9.90;;;3.20;66.90;;;;;;4891824;29;20111;-64
2021/11/06 06:00:35;;;;;;;16.48;10.07;;;3.20;66.90;;;;;;4891241;29;20044;-64
2021/11/06 06:03:00;;;;;;;16.42;10.40;;;3.10;67.00;;;;;;4895267;29;20115;-63
2021/11/06 06:05:26;;;;;;;18.67;11.32;;;3.20;67.20;;;;;;4893304;29;20838;-63
2021/11/06 06:07:53;;;;;;;18.67;10.60;;;3.10;67.20;;;;;;4893503;29;20032;-64
2021/11/06 06:10:19;;;;;;;18.02;10.20;;;3.10;67.10;;;;;;4891871;29;20076;-64
2021/11/06 06:12:50;;;;;;;15.90;9.85;;;3.10;67.20;;;;;;4893068;29;20029;-64
2021/11/06 06:15:17;;;;;;;17.20;10.73;;;3.10;67.10;;;;;;4893540;29;20449;-63
2021/11/06 06:17:42;;;;;;;19.80;11.85;;;3.10;67.10;;;;;;4892932;29;20511;-64
2021/11/06 06:20:10;;;;;;;21.13;13.13;;;3.10;67.20;;;;;;4891720;29;20032;-63
2021/11/06 06:22:37;;;;;;;21.05;12.65;;;3.10;68.20;;;;;;4892591;29;20126;-64
2021/11/06 06:25:04;;;;;;;20.75;11.93;;;3.10;68.40;;;;;;4893113;29;20108;-63
2021/11/06 06:27:31;;;;;;;19.05;12.02;;;3.00;68.50;;;;;;4892211;29;20527;-63
2021/11/06 06:29:56;;;;;;;17.45;11.63;;;3.10;69.10;;;;;;4893729;29;20029;-64
2021/11/06 06:32:22;;;;;;;21.80;12.90;;;3.10;69.40;;;;;;4895882;29;20400;-64
2021/11/06 06:35:17;;;;;;;21.95;12.73;;;3.10;69.60;;;;;;4894787;29;20392;-63
2021/11/06 06:37:43;;;;;;;21.98;13.02;;;3.20;69.60;;;;;;4894656;29;20079;-63
2021/11/06 06:40:10;;;;;;;24.00;13.20;;;3.20;69.40;;;;;;4896939;29;20032;-63
2021/11/06 06:42:36;;;;;;;20.90;12.13;;;3.30;69.20;;;;;;4893561;29;20395;-63
2021/11/06 06:45:03;;;;;;;22.20;12.27;;;3.30;69.10;;;;;;4893222;29;20049;-64
2021/11/06 06:47:29;;;;;;;21.65;12.63;;;3.30;69.10;;;;;;4895744;29;20029;-64
2021/11/06 06:49:55;;;;;;;24.25;13.82;;;3.30;69.60;;;;;;4893300;29;20059;-64
2021/11/06 06:52:21;;;;;;;24.08;13.38;;;3.20;69.60;;;;;;4895154;29;20033;-63
2021/11/06 06:54:47;;;;;;;25.73;13.60;;;3.20;69.80;;;;;;4895794;29;20044;-63
2021/11/06 06:57:13;;;;;;;21.50;12.40;;;3.20;69.80;;;;;;4894750;29;20032;-64
2021/11/06 06:59:39;;;;;;;23.55;12.80;;;3.20;70.10;;;;;;4894431;29;20108;-63
2021/11/06 07:02:06;;;;;;;25.40;13.57;;;3.10;70.00;;;;;;4892457;29;20033;-64
2021/11/06 07:04:32;;;;;;;19.98;12.60;;;3.10;70.10;;;;;;4893613;29;20073;-64
2021/11/06 07:06:58;;;;;;;17.92;12.23;;;3.10;70.10;;;;;;4892571;29;20036;-64
2021/11/06 07:09:25;;;;;;;22.70;12.63;;;3.10;70.10;;;;;;4895390;29;20116;-63
2021/11/06 07:11:51;;;;;;;31.25;17.60;;;3.10;70.00;;;;;;4897308;29;20028;-63
2021/11/06 07:14:19;;;;;;;21.30;12.20;;;3.20;70.00;;;;;;4890587;29;20029;-63
2021/11/06 07:16:46;;;;;;;20.80;12.50;;;3.20;69.80;;;;;;4891398;29;20040;-64
2021/11/06 07:19:12;;;;;;;21.95;12.85;;;3.40;69.50;;;;;;4891992;29;20025;-64
2021/11/06 07:21:38;;;;;;;25.27;12.93;;;3.70;70.00;;;;;;4890218;29;20044;-64
2021/11/06 07:24:05;;;;;;;21.65;12.70;;;4.40;68.00;;;;;;4895736;29;20101;-64
2021/11/06 07:26:32;;;;;;;18.98;12.30;;;4.90;66.70;;;;;;4893876;29;20036;-63
2021/11/06 07:28:57;;;;;;;19.92;11.75;;;5.60;65.30;;;;;;4892087;29;20029;-64
2021/11/06 07:31:23;;;;;;;20.27;12.55;;;6.10;64.00;;;;;;4895059;29;20091;-64
2021/11/06 07:33:52;;;;;;;22.75;13.25;;;6.60;62.90;;;;;;4894402;29;20036;-64
2021/11/06 07:36:18;;;;;;;22.95;12.75;;;7.30;61.30;;;;;;4893974;29;20065;-66
2021/11/06 07:38:43;;;;;;;22.65;13.05;;;7.80;59.70;;;;;;4889596;29;20048;-66
2021/11/06 07:41:09;;;;;;;22.63;13.20;;;8.40;58.70;;;;;;4894686;29;20404;-66
2021/11/06 07:43:37;;;;;;;20.10;13.80;;;9.00;57.20;;;;;;4890804;29;20048;-66
2021/11/06 07:46:06;;;;;;;27.40;16.80;;;9.60;55.50;;;;;;4893080;29;20081;-66
2021/11/06 07:48:32;;;;;;;26.48;14.73;;;10.20;54.30;;;;;;4894400;29;20120;-66
2021/11/06 07:50:58;;;;;;;26.85;14.82;;;10.70;53.20;;;;;;4896781;29;20032;-66
2021/11/06 07:53:25;;;;;;;31.65;16.77;;;11.30;51.80;;;;;;4889977;29;20069;-67
2021/11/06 07:55:51;;;;;;;28.50;17.50;;;11.90;50.20;;;;;;4889703;29;20041;-67
2021/11/06 07:58:16;;;;;;;29.77;18.08;;;12.50;48.70;;;;;;4887025;29;20040;-67
2021/11/06 08:00:43;;;;;;;27.55;16.98;;;13.10;47.30;;;;;;4883387;29;20412;-67
2021/11/06 08:03:08;;;;;;;22.50;16.40;;;13.80;45.90;;;;;;4910476;29;20035;-67
2021/11/06 08:05:34;;;;;;;26.80;16.23;;;14.40;44.00;;;;;;4892891;29;20049;-67
2021/11/06 08:11:24;;;;;;;30.95;19.65;;;15.30;41.60;;;;;;4887818;29;20035;-67
2021/11/06 08:13:50;;;;;;;29.15;18.65;;;15.80;40.10;;;;;;4885623;29;20202;-67
2021/11/06 08:16:17;;;;;;;25.98;17.85;;;16.20;39.70;;;;;;4891080;29;20558;-67
2021/11/06 08:18:47;;;;;;;23.83;16.17;;;16.10;39.70;;;;;;4890362;29;20033;-67
2021/11/06 08:21:13;;;;;;;26.70;15.82;;;15.30;40.60;;;;;;4890910;29;20111;-67
2021/11/06 08:23:40;;;;;;;24.05;16.52;;;14.70;42.00;;;;;;4892376;29;20053;-67
2021/11/06 08:26:07;;;;;;;22.13;15.80;;;15.30;41.80;;;;;;4889896;29;20040;-67
2021/11/06 08:28:35;;;;;;;22.48;16.25;;;16.20;40.60;;;;;;4887394;29;20159;-67
2021/11/06 08:31:04;;;;;;;24.95;16.83;;;17.00;39.40;;;;;;4890613;29;20045;-68
2021/11/06 08:33:32;;;;;;;21.65;17.33;;;17.90;38.00;;;;;;4891292;29;20029;-67
2021/11/06 08:36:01;;;;;;;23.30;18.63;;;18.70;36.70;;;;;;4882269;29;20073;-68
2021/11/06 08:38:28;;;;;;;23.63;19.17;;;19.60;35.00;;;;;;4891798;29;20412;-67
2021/11/06 08:40:54;;;;;;;24.00;20.40;;;20.50;33.90;;;;;;4891895;29;20024;-67
2021/11/06 08:43:21;;;;;;;23.77;19.42;;;21.30;32.20;;;;;;4892353;29;20131;-67
2021/11/06 08:45:47;;;;;;;22.70;20.30;;;21.80;32.20;;;;;;4891803;29;20033;-66
2021/11/06 08:48:14;;;;;;;22.40;16.88;;;21.60;31.50;;;;;;4879912;29;20089;-68
2021/11/06 08:50:40;;;;;;;23.20;19.25;;;20.40;33.90;;;;;;4892354;29;20107;-67
2021/11/06 08:53:06;;;;;;;21.70;17.48;;;20.00;33.70;;;;;;4892451;29;20028;-67
2021/11/06 08:55:32;;;;;;;19.17;16.88;;;19.70;34.30;;;;;;4892419;29;20412;-67
2021/11/06 08:57:58;;;;;;;20.98;14.75;;;19.30;34.90;;;;;;4893668;29;20054;-67
2021/11/06 09:00:33;;;;;;;19.08;15.50;;;18.70;35.90;;;;;;4892960;29;20039;-67
2021/11/06 09:03:03;;;;;;;21.02;15.30;;;18.30;36.70;;;;;;4887150;29;20105;-67
2021/11/06 09:05:30;;;;;;;17.33;14.82;;;17.90;37.50;;;;;;4890661;29;20040;-65
2021/11/06 09:07:57;;;;;;;18.65;15.32;;;17.60;38.20;;;;;;4891901;29;20092;-67
2021/11/06 09:10:22;;;;;;;20.13;15.45;;;17.20;39.10;;;;;;4893327;29;20041;-67
2021/11/06 09:12:49;;;;;;;20.45;15.05;;;16.80;40.00;;;;;;4893820;29;20039;-67
2021/11/06 09:15:16;;;;;;;20.92;15.63;;;16.60;40.50;;;;;;4893778;29;20408;-67
2021/11/06 09:17:41;;;;;;;20.50;15.75;;;16.60;41.00;;;;;;4885321;29;20039;-67
2021/11/06 09:20:08;;;;;;;20.98;15.77;;;16.80;40.90;;;;;;4891663;29;20032;-67
2021/11/06 09:22:35;;;;;;;18.60;16.17;;;17.60;40.00;;;;;;4891041;29;20107;-67
2021/11/06 09:25:02;;;;;;;18.30;14.93;;;18.20;39.10;;;;;;4888666;29;20591;-67
2021/11/06 09:27:28;;;;;;;22.35;17.75;;;18.30;38.70;;;;;;4892117;29;20096;-63
2021/11/06 09:29:53;;;;;;;16.05;13.57;;;18.80;38.80;;;;;;4888720;29;20477;-65
2021/11/06 09:32:20;;;;;;;17.45;12.60;;;18.60;38.60;;;;;;4892611;29;20147;-65
2021/11/06 09:34:46;;;;;;;14.10;11.93;;;18.30;38.90;;;;;;4888650;29;20112;-63
2021/11/06 09:37:12;;;;;;;12.95;10.48;;;18.30;39.20;;;;;;4881355;29;20029;-65
2021/11/06 09:39:38;;;;;;;14.65;12.88;;;18.40;39.30;;;;;;4889062;29;20123;-63
2021/11/06 09:42:05;;;;;;;17.20;15.50;;;19.10;39.00;;;;;;4895485;29;20033;-63
2021/11/06 09:44:34;;;;;;;12.80;11.05;;;20.20;37.70;;;;;;4884260;29;20049;-65
2021/11/06 09:47:04;;;;;;;13.45;10.20;;;20.60;36.40;;;;;;4888454;29;20048;-65
2021/11/06 09:49:31;;;;;;;14.23;11.88;;;20.40;35.80;;;;;;4890126;29;20025;-65
2021/11/06 09:51:57;;;;;;;13.30;11.73;;;20.10;36.90;;;;;;4884779;29;22715;-63
2021/11/06 09:54:23;;;;;;;12.73;8.38;;;20.20;37.10;;;;;;4887814;29;20036;-63
2021/11/06 09:56:48;;;;;;;11.70;7.63;;;20.50;36.50;;;;;;4884941;29;20461;-63
2021/11/06 09:59:14;;;;;;;12.43;8.07;;;20.70;35.40;;;;;;4891142;29;20059;-63
2021/11/06 10:01:40;;;;;;;10.98;7.78;;;21.00;35.40;;;;;;4890143;29;20116;-63
2021/11/06 10:04:08;;;;;;;12.15;8.10;;;20.90;34.90;;;;;;4890731;29;20476;-63
2021/11/06 10:06:43;;;;;;;11.30;8.05;;;20.50;35.50;;;;;;4889754;29;20527;-63
2021/11/06 10:09:10;;;;;;;10.70;7.60;;;20.00;36.30;;;;;;4897495;29;20036;-65
2021/11/06 10:11:39;;;;;;;12.27;7.95;;;19.60;37.20;;;;;;4895465;29;20120;-63
2021/11/06 10:14:05;;;;;;;9.13;7.70;;;19.10;38.00;;;;;;4891564;29;20028;-67
2021/11/06 10:16:38;;;;;;;13.48;8.63;;;18.80;38.80;;;;;;4895314;29;20071;-66
2021/11/06 10:19:19;;;;;;;11.63;7.68;;;18.30;39.50;;;;;;4896334;29;20665;-66
2021/11/06 10:21:50;;;;;;;10.48;7.70;;;18.00;40.40;;;;;;4891397;29;20033;-66
2021/11/06 10:24:35;;;;;;;11.60;8.45;;;17.70;41.20;;;;;;4886937;29;20028;-66
2021/11/06 10:27:21;;;;;;;10.65;8.77;;;17.40;42.10;;;;;;4894178;29;20028;-66
2021/11/06 10:30:09;;;;;;;11.63;8.90;;;17.20;43.00;;;;;;4894375;29;20035;-66
2021/11/06 10:32:36;;;;;;;10.88;8.40;;;17.10;43.50;;;;;;4903256;29;20160;-66
2021/11/06 10:35:23;;;;;;;12.50;8.10;;;16.90;43.80;;;;;;4899237;29;20056;-66
2021/11/06 10:38:01;;;;;;;9.25;6.80;;;16.80;44.40;;;;;;4893677;29;20071;-66
2021/11/06 10:40:32;;;;;;;12.10;7.43;;;16.80;44.70;;;;;;4894052;29;20064;-66
2021/11/06 10:43:04;;;;;;;13.00;7.03;;;16.70;44.80;;;;;;4895796;29;20082;-66
2021/11/06 10:45:36;;;;;;;16.52;7.55;;;16.80;45.20;;;;;;4894281;29;20192;-67
2021/11/06 10:48:08;;;;;;;12.15;7.65;;;16.80;45.20;;;;;;4889680;29;20025;-67
2021/11/06 10:51:02;;;;;;;10.73;7.55;;;17.00;45.30;;;;;;4894520;29;20119;-67
2021/11/06 10:53:35;;;;;;;12.90;7.65;;;17.10;45.30;;;;;;4893356;29;20413;-67
2021/11/06 10:56:04;;;;;;;12.07;7.82;;;17.10;46.40;;;;;;4896209;29;20682;-67
2021/11/06 10:58:33;;;;;;;13.27;7.80;;;17.00;45.60;;;;;;4894064;29;20028;-67
2021/11/06 11:01:08;;;;;;;11.05;6.93;;;16.90;46.10;;;;;;4886817;29;20021;-67
2021/11/06 11:03:38;;;;;;;10.27;6.80;;;16.90;46.30;;;;;;4881509;29;20088;-68
2021/11/06 11:06:14;;;;;;;9.02;6.10;;;17.00;46.20;;;;;;4893651;29;20049;-68
2021/11/06 11:08:45;;;;;;;9.68;6.35;;;17.10;46.40;;;;;;4896734;29;20145;-68
2021/11/06 11:11:12;;;;;;;9.98;6.38;;;17.00;46.10;;;;;;4895440;29;20096;-66
2021/11/06 11:13:54;;;;;;;11.82;6.68;;;16.90;46.30;;;;;;4894484;29;20100;-65
2021/11/06 11:16:22;;;;;;;12.30;7.00;;;16.90;46.60;;;;;;4890629;29;20037;-67
2021/11/06 11:18:50;;;;;;;13.77;7.40;;;16.80;46.60;;;;;;4888029;29;20025;-66
2021/11/06 11:21:27;;;;;;;11.90;6.70;;;16.90;46.60;;;;;;4890428;29;20021;-65
2021/11/06 11:23:54;;;;;;;9.75;6.78;;;17.10;46.60;;;;;;4906720;29;20031;-65
2021/11/06 11:26:23;;;;;;;11.57;7.30;;;17.30;46.50;;;;;;4889011;29;20412;-67
2021/11/06 11:28:50;;;;;;;11.57;6.32;;;17.60;45.90;;;;;;4894765;29;20122;-65
2021/11/06 11:31:17;;;;;;;10.80;6.80;;;17.90;45.50;;;;;;4894294;29;20024;-65
2021/11/06 11:33:44;;;;;;;10.07;6.57;;;18.10;44.70;;;;;;4893907;29;20033;-65
2021/11/06 11:36:12;;;;;;;9.63;6.47;;;18.30;44.40;;;;;;4886669;29;20108;-65
2021/11/06 11:38:39;;;;;;;9.82;6.10;;;18.30;44.90;;;;;;4884907;29;20033;-68
2021/11/06 11:41:28;;;;;;;8.80;5.47;;;18.10;45.10;;;;;;4885903;29;20021;-68
2021/11/06 11:44:18;;;;;;;8.20;5.07;;;18.00;45.60;;;;;;4890062;29;20055;-68
2021/11/06 11:46:50;;;;;;;9.98;5.15;;;17.90;45.20;;;;;;4892683;29;20553;-68
2021/11/06 11:49:18;;;;;;;10.13;5.90;;;18.00;45.20;;;;;;4893087;29;20024;-68
2021/11/06 11:51:44;;;;;;;9.27;5.30;;;18.10;44.80;;;;;;4893590;29;20511;-68
2021/11/06 11:54:11;;;;;;;11.50;5.68;;;18.10;44.70;;;;;;4896480;29;20050;-68
2021/11/06 11:56:39;;;;;;;8.82;5.63;;;18.10;44.90;;;;;;4894142;29;20020;-68
2021/11/06 11:59:06;;;;;;;12.40;5.88;;;18.10;45.10;;;;;;4891277;29;20470;-66
2021/11/06 12:01:32;;;;;;;8.95;5.63;;;17.90;45.20;;;;;;4892675;29;20036;-67
2021/11/06 12:04:17;;;;;;;10.90;6.07;;;17.90;45.40;;;;;;4893403;29;20039;-68
2021/11/06 12:06:45;;;;;;;10.95;6.05;;;17.80;45.30;;;;;;4891300;29;20071;-65
2021/11/06 12:09:16;;;;;;;9.10;6.20;;;17.60;45.50;;;;;;4896670;29;20032;-66
2021/11/06 12:11:44;;;;;;;12.70;7.00;;;17.50;45.80;;;;;;4891046;29;20044;-67
2021/11/06 12:14:18;;;;;;;9.27;6.30;;;17.30;46.00;;;;;;4891720;29;20032;-66
2021/11/06 12:17:06;;;;;;;11.15;6.10;;;17.10;46.60;;;;;;4886711;29;20037;-67
2021/11/06 12:19:42;;;;;;;10.88;5.85;;;17.00;46.90;;;;;;4890085;29;20056;-67
2021/11/06 12:22:14;;;;;;;10.05;6.00;;;16.90;47.50;;;;;;4894303;29;20033;-65
2021/11/06 12:24:42;;;;;;;10.15;5.72;;;17.00;47.70;;;;;;4883212;29;20041;-67
2021/11/06 12:27:11;;;;;;;11.70;5.68;;;17.10;47.70;;;;;;4895693;29;20039;-66
2021/11/06 12:29:51;;;;;;;10.23;5.38;;;17.20;47.70;;;;;;4893147;29;20061;-67
2021/11/06 12:32:27;;;;;;;10.48;5.57;;;17.30;47.60;;;;;;4892323;29;20025;-67
2021/11/06 12:35:13;;;;;;;10.38;5.63;;;17.30;47.50;;;;;;4904089;29;20056;-67
2021/11/06 12:37:39;;;;;;;8.20;5.10;;;17.50;47.50;;;;;;4886105;29;20037;-68
2021/11/06 12:40:05;;;;;;;11.85;5.72;;;17.60;47.10;;;;;;4892558;29;20024;-68
2021/11/06 12:42:31;;;;;;;10.85;5.07;;;17.70;46.80;;;;;;4893909;29;20036;-68
2021/11/06 12:45:02;;;;;;;8.93;5.10;;;17.80;46.40;;;;;;4894328;29;20083;-66
2021/11/06 12:47:29;;;;;;;10.85;5.40;;;18.20;45.60;;;;;;4891805;29;20036;-67